»·PEaware :: DAL4568 KEVV-KATL

DAL4568 :: KEVV-KATL

FLIGHT INFORMATION

Flight Status: Arrived
Operator:
Delta Air Lines
More flights by this operator :: More flights under this callsign
Pilot: Goran S. (13504)
Aircraft: CANADAIR CL-600 CRJ-200
(CRJ2)
More flights by this aircraft type
Origin: KEVV Evansville Regl
United States
Destination: KATL Hartsfield-Jackson Atlanta
United States
More flights between these airports :: More routes between these airports
Route: BNA GRNDY CALCO VIKNN BNELE
File this flight plan on PilotEdge
Remarks: Sample flight plan
Altitude:
(Current/Filed)
30,000ft
Speed:
(Current/Filed)
115kts
Departed: 09-Dec-16 02:14 PM
Arrived: 09-Dec-16 03:07 PM
Distance/Time
Traveled:
304nm/0:53
Distance/Time
To Go:
Arrived

Flight Plot

Page will automatically refresh every two minutes.

Flight plan parsing failed; only flown route is shown


Map Options




Map Legend


Flown Route
Filed Route
Departure Airport
Arrival Airport
Navaid (VOR, NDB)
Fix

Horizontal Profiles

Position Reports

Time Latitude Longitude Heading Altitude Ground
Speed
09-Dec-16 14:01 38.047863 -87.525441 308 421ft 0kts
09-Dec-16 14:02 38.047863 -87.525441 308 421ft 0kts
09-Dec-16 14:03 38.047863 -87.525441 308 421ft 0kts
09-Dec-16 14:04 38.047905 -87.525481 332 421ft 2kts
09-Dec-16 14:05 38.047064 -87.522839 50 421ft 21kts
09-Dec-16 14:06 38.051373 -87.516022 139 421ft 15kts
09-Dec-16 14:07 38.037655 -87.528920 218 463ft 170kts
09-Dec-16 14:08 37.989032 -87.524465 131 3298ft 229kts
09-Dec-16 14:09 37.934766 -87.466368 153 5900ft 296kts
09-Dec-16 14:10 37.851150 -87.424320 160 8274ft 350kts
09-Dec-16 14:11 37.754706 -87.381476 160 10616ft 383kts
09-Dec-16 14:11 37.670015 -87.344220 160 12533ft 397kts
09-Dec-16 14:12 37.564434 -87.297917 160 14840ft 406kts
09-Dec-16 14:13 37.458195 -87.251466 160 17127ft 406kts
09-Dec-16 14:14 37.352382 -87.205352 160 19407ft 402kts
09-Dec-16 14:15 37.248261 -87.160098 160 21682ft 392kts
09-Dec-16 14:16 37.146888 -87.116165 160 23955ft 379kts
09-Dec-16 14:17 37.049834 -87.074221 160 26217ft 359kts
09-Dec-16 14:18 36.958773 -87.034970 160 28458ft 333kts
09-Dec-16 14:19 36.874716 -86.998818 160 29996ft 322kts
09-Dec-16 14:20 36.785376 -86.960486 160 30009ft 359kts
09-Dec-16 14:21 36.686132 -86.918024 160 30007ft 394kts
09-Dec-16 14:22 36.579042 -86.871956 161 30006ft 423kts
09-Dec-16 14:23 36.464300 -86.823080 161 30004ft 448kts
09-Dec-16 14:24 36.344230 -86.772173 161 30003ft 466kts
09-Dec-16 14:25 36.220077 -86.719710 161 30001ft 474kts
09-Dec-16 14:26 36.094701 -86.668883 163 30000ft 477kts
09-Dec-16 14:27 35.967999 -86.621337 163 30000ft 478kts
09-Dec-16 14:28 35.841055 -86.573925 163 30000ft 478kts
09-Dec-16 14:29 35.713658 -86.526504 163 30000ft 478kts
09-Dec-16 14:30 35.586743 -86.479420 163 30000ft 478kts
09-Dec-16 14:31 35.459521 -86.431963 162 30000ft 478kts
09-Dec-16 14:32 35.332320 -86.384292 162 30000ft 479kts
09-Dec-16 14:33 35.205205 -86.336805 162 30000ft 479kts
09-Dec-16 14:34 35.077989 -86.289436 162 30000ft 479kts
09-Dec-16 14:35 34.950717 -86.242201 162 30000ft 479kts
09-Dec-16 14:36 34.823520 -86.195146 162 30000ft 479kts
09-Dec-16 14:37 34.696218 -86.148204 162 30000ft 479kts
09-Dec-16 14:38 34.568660 -86.101318 162 30000ft 479kts
09-Dec-16 14:39 34.441451 -86.054711 162 29999ft 479kts
09-Dec-16 14:40 34.327537 -85.978276 126 29995ft 477kts
09-Dec-16 14:41 34.268156 -85.834828 116 30000ft 478kts
09-Dec-16 14:42 34.208356 -85.692095 117 30000ft 479kts
09-Dec-16 14:43 34.150104 -85.553969 117 28432ft 433kts
09-Dec-16 14:44 34.099741 -85.434516 116 26390ft 377kts
09-Dec-16 14:45 34.055231 -85.328802 116 24357ft 336kts
09-Dec-16 14:46 34.014813 -85.233077 116 22328ft 307kts
09-Dec-16 14:47 33.977486 -85.144906 116 20312ft 287kts
09-Dec-16 14:49 33.940073 -85.063694 119 18309ft 272kts
09-Dec-16 14:50 33.903579 -84.986630 119 16313ft 262kts
09-Dec-16 14:51 33.868024 -84.911779 119 14312ft 255kts
09-Dec-16 14:52 33.833770 -84.839238 119 12331ft 250kts
09-Dec-16 14:53 33.799839 -84.767975 120 10348ft 246kts
09-Dec-16 14:54 33.766080 -84.697331 120 8355ft 243kts
09-Dec-16 14:55 33.731782 -84.628089 134 6350ft 241kts
09-Dec-16 14:56 33.670653 -84.599625 161 4376ft 237kts
09-Dec-16 14:57 33.633755 -84.560355 98 3453ft 164kts
09-Dec-16 14:58 33.634372 -84.509442 88 2004ft 144kts
09-Dec-16 14:59 33.634708 -84.461042 89 1287ft 143kts
09-Dec-16 15:00 33.634911 -84.426485 75 1027ft 34kts
09-Dec-16 15:01 33.636548 -84.424461 269 1027ft 23kts
09-Dec-16 15:02 33.638191 -84.430643 359 1027ft 19kts
09-Dec-16 15:03 33.641017 -84.431095 73 1027ft 20kts
09-Dec-16 15:04 33.641126 -84.429802 73 1027ft 0kts
09-Dec-16 15:05 33.641126 -84.429802 73 1027ft 0kts

Navigation Log

Ident Type
Flight plan parsing failed, navigation log unavailable